Columbus, Ohio
Traffic Map
Current Weather Conditions
Columbus, Ohio
Clear
Clear
20°
Feels Like: 20°
Wind Chill: 20° Ceiling: Unl
Heat Index: 20° Visibility: 10mi
Dew Point: Wind: 3mph
Humidity: 62% Direction: 110° (ESE)
Pressure: 30.44in Gusts: 0mph
Raw Report DataKCMH 220151Z 11003KT 10SM CLR M07/M13 A3044 RMK AO2 SLP320 T10671128 $
Traffic Incident Summary
Active as of:
Severity:
Category:
InformationThere was an issue retrieving the traffic information for this location. Please try a different location or try again shortly.
Advertisements
Track Severe Weather on mobile